createdAt,value
2018-12-30T00:01:38.435Z,98402.97
2018-12-30T00:04:11.068Z,98411.69
2018-12-30T00:06:43.116Z,98415.37
2018-12-30T00:09:17.505Z,98424.73
2018-12-30T00:11:48.823Z,98423.95
2018-12-30T00:14:20.070Z,98422.65
2018-12-30T00:16:59.803Z,98417.31
2018-12-30T00:19:31.404Z,98413.45
2018-12-30T00:22:08.370Z,98415.04
2018-12-30T00:24:45.933Z,98414.73
2018-12-30T00:27:17.448Z,98424.08
2018-12-30T00:29:48.933Z,98421.84
2018-12-30T00:32:33.392Z,98431.20
2018-12-30T00:35:06.522Z,98436.84
2018-12-30T00:37:41.046Z,98436.19
2018-12-30T00:40:16.682Z,98437.47
2018-12-30T00:42:49.813Z,98439.88
2018-12-30T00:45:23.411Z,98439.41
2018-12-30T00:47:55.136Z,98448.14
2018-12-30T00:50:27.040Z,98444.42
2018-12-30T00:53:00.303Z,98451.65
2018-12-30T00:55:37.531Z,98449.24
2018-12-30T00:58:13.456Z,98446.66
2018-12-30T01:00:45.250Z,98453.11
2018-12-30T01:03:16.358Z,98459.41
2018-12-30T01:05:47.850Z,98476.52
2018-12-30T01:08:19.267Z,98469.25
2018-12-30T01:10:50.926Z,98464.55
2018-12-30T01:13:22.732Z,98471.34
2018-12-30T01:15:54.270Z,98462.79
2018-12-30T01:18:25.993Z,98468.42
2018-12-30T01:20:57.425Z,98463.09
2018-12-30T01:23:29.062Z,98454.55
2018-12-30T01:26:00.718Z,98449.36
2018-12-30T01:28:32.394Z,98443.38
2018-12-30T01:31:03.803Z,98452.75
2018-12-30T01:33:35.182Z,98452.58
2018-12-30T01:36:06.673Z,98449.17
2018-12-30T01:38:37.791Z,98468.37
2018-12-30T01:41:09.500Z,98459.15
2018-12-30T01:43:40.949Z,98462.24
2018-12-30T01:46:12.129Z,98462.23
2018-12-30T01:48:43.516Z,98466.11
2018-12-30T01:51:15.204Z,98458.20
2018-12-30T01:53:46.865Z,98457.05
2018-12-30T01:56:18.590Z,98452.20
2018-12-30T01:58:50.655Z,98455.54
2018-12-30T02:01:21.759Z,98444.78
2018-12-30T02:03:53.670Z,98437.84
2018-12-30T02:06:26.695Z,98436.48
2018-12-30T02:08:58.372Z,98436.34
2018-12-30T02:11:29.748Z,98436.87
2018-12-30T02:14:01.393Z,98439.25
2018-12-30T02:16:33.091Z,98455.73
2018-12-30T02:19:04.477Z,98457.47
2018-12-30T02:21:41.022Z,98474.77
2018-12-30T02:24:09.060Z,98471.70
2018-12-30T02:26:40.738Z,98479.08
2018-12-30T02:29:12.113Z,98474.44
2018-12-30T02:31:44.374Z,98479.59
2018-12-30T02:34:16.034Z,98476.53
2018-12-30T02:36:47.508Z,98476.78
2018-12-30T02:39:18.618Z,98474.41
2018-12-30T02:41:49.995Z,98448.61
2018-12-30T02:44:21.388Z,98458.95
2018-12-30T02:46:52.816Z,98480.73
2018-12-30T02:49:24.499Z,98482.52
2018-12-30T02:51:56.048Z,98479.41
2018-12-30T02:54:27.958Z,98476.02
2018-12-30T02:56:59.437Z,98486.81
2018-12-30T02:59:31.105Z,98500.25
2018-12-30T03:02:02.661Z,98508.16
2018-12-30T03:04:34.412Z,98517.84
2018-12-30T03:07:05.782Z,98531.42
2018-12-30T03:09:37.462Z,98533.84
2018-12-30T03:12:09.383Z,98525.30
2018-12-30T03:14:40.759Z,98515.45
2018-12-30T03:17:11.895Z,98503.33
2018-12-30T03:19:43.084Z,98502.36
2018-12-30T03:22:14.470Z,98504.92
2018-12-30T03:24:46.488Z,98507.36
2018-12-30T03:27:18.138Z,98501.04
2018-12-30T03:29:49.657Z,98497.34
2018-12-30T03:32:21.043Z,98488.45
2018-12-30T03:34:52.404Z,98501.34
2018-12-30T03:37:23.803Z,98508.12
2018-12-30T03:39:55.199Z,98499.38
2018-12-30T03:42:26.598Z,98498.61
2018-12-30T03:44:58.003Z,98499.44
2018-12-30T03:47:29.138Z,98504.06
2018-12-30T03:50:00.579Z,98514.31
2018-12-30T03:52:32.303Z,98511.88
2018-12-30T03:55:03.423Z,98508.27
2018-12-30T03:57:34.589Z,98514.59
2018-12-30T04:00:05.866Z,98503.10
2018-12-30T04:02:36.973Z,98501.64
2018-12-30T04:05:07.816Z,98495.33
2018-12-30T04:07:39.739Z,98492.91
2018-12-30T04:10:11.484Z,98494.38
2018-12-30T04:12:42.938Z,98495.55
2018-12-30T04:15:14.341Z,98504.55
2018-12-30T04:17:46.346Z,98506.19
2018-12-30T04:20:18.075Z,98507.30
2018-12-30T04:22:49.751Z,98519.03
2018-12-30T04:25:20.928Z,98516.64
2018-12-30T04:27:52.589Z,98510.03
2018-12-30T04:30:23.698Z,98510.34
2018-12-30T04:32:54.923Z,98504.21
2018-12-30T04:35:26.613Z,98509.40
2018-12-30T04:37:57.937Z,98521.38
2018-12-30T04:40:29.079Z,98511.67
2018-12-30T04:43:00.818Z,98514.11
2018-12-30T04:45:32.507Z,98519.13
2018-12-30T04:48:04.071Z,98526.23
2018-12-30T04:50:35.530Z,98534.50
2018-12-30T04:53:07.058Z,98523.68
2018-12-30T04:55:38.439Z,98525.58
2018-12-30T04:58:09.860Z,98516.64
2018-12-30T05:00:41.555Z,98514.41
2018-12-30T05:03:13.222Z,98526.83
2018-12-30T05:05:44.923Z,98526.04
2018-12-30T05:08:16.346Z,98525.40
2018-12-30T05:10:47.469Z,98533.47
2018-12-30T05:13:18.939Z,98530.56
2018-12-30T05:15:50.499Z,98539.39
2018-12-30T05:18:21.922Z,98535.67
2018-12-30T05:20:52.485Z,98536.50
2018-12-30T05:23:23.583Z,98546.97
2018-12-30T05:25:55.007Z,98536.69
2018-12-30T05:28:26.392Z,98537.63
2018-12-30T05:30:57.571Z,98547.15
2018-12-30T05:33:29.131Z,98539.39
2018-12-30T05:36:00.873Z,98541.00
2018-12-30T05:38:32.524Z,98543.09
2018-12-30T05:41:03.937Z,98536.78
2018-12-30T05:43:35.357Z,98535.82
2018-12-30T05:46:06.998Z,98530.95
2018-12-30T05:48:38.375Z,98542.42
2018-12-30T05:51:10.070Z,98530.06
2018-12-30T05:53:41.469Z,98548.53
2018-12-30T05:56:12.872Z,98561.00
2018-12-30T05:58:44.253Z,98547.88
2018-12-30T06:01:15.693Z,98548.70
2018-12-30T06:03:46.835Z,98557.73
2018-12-30T06:06:18.258Z,98563.89
2018-12-30T06:08:49.672Z,98565.50
2018-12-30T06:11:21.383Z,98572.94
2018-12-30T06:13:52.748Z,98571.13
2018-12-30T06:16:23.563Z,98576.89
2018-12-30T06:18:55.245Z,98581.63
2018-12-30T06:21:26.648Z,98580.05
2018-12-30T06:23:57.745Z,98573.72
2018-12-30T06:26:29.427Z,98580.69
2018-12-30T06:29:00.816Z,98586.66
2018-12-30T06:31:32.199Z,98593.25
2018-12-30T06:34:03.331Z,98595.56
2018-12-30T06:36:35.059Z,98585.20
2018-12-30T06:39:07.362Z,98595.22
2018-12-30T06:41:39.044Z,98604.94
2018-12-30T06:44:10.763Z,98602.30
2018-12-30T06:46:42.440Z,98613.81
2018-12-30T06:49:13.860Z,98612.55
2018-12-30T06:51:45.258Z,98617.55
2018-12-30T06:54:16.926Z,98610.59
2018-12-30T06:56:48.056Z,98622.83
2018-12-30T06:59:19.743Z,98636.91
2018-12-30T07:01:51.401Z,98627.89
2018-12-30T07:04:22.801Z,98628.06
2018-12-30T07:06:53.962Z,98635.45
2018-12-30T07:09:25.357Z,98636.11
2018-12-30T07:11:56.785Z,98637.36
2018-12-30T07:14:27.989Z,98622.15
2018-12-30T07:16:59.400Z,98646.56
2018-12-30T07:19:31.462Z,98648.38
2018-12-30T07:22:03.118Z,98656.89
2018-12-30T07:24:34.249Z,98660.48
2018-12-30T07:27:06.084Z,98664.67
2018-12-30T07:29:37.746Z,98669.67
2018-12-30T07:32:09.405Z,98667.07
2018-12-30T07:34:41.443Z,98675.31
2018-12-30T07:37:13.137Z,98684.38
2018-12-30T07:39:44.257Z,98680.03
2018-12-30T07:42:15.912Z,98684.83
2018-12-30T07:44:47.036Z,98687.95
2018-12-30T07:47:18.733Z,98691.36
2018-12-30T07:49:50.380Z,98680.50
2018-12-30T07:52:22.069Z,98684.53
2018-12-30T07:54:54.520Z,98700.19
2018-12-30T07:57:25.961Z,98707.34
2018-12-30T07:59:57.629Z,98714.42
2018-12-30T08:02:29.009Z,98719.80
2018-12-30T08:05:00.724Z,98719.28
2018-12-30T08:07:32.116Z,98728.84
2018-12-30T08:10:03.297Z,98725.59
2018-12-30T08:12:35.195Z,98731.56
2018-12-30T08:15:06.213Z,98724.45
2018-12-30T08:17:37.849Z,98724.91
2018-12-30T08:20:09.192Z,98739.97
2018-12-30T08:22:41.123Z,98736.77
2018-12-30T08:25:12.247Z,98744.48
2018-12-30T08:27:43.604Z,98747.10
2018-12-30T08:30:14.173Z,98745.31
2018-12-30T08:32:45.556Z,98750.99
2018-12-30T08:35:16.462Z,98750.34
2018-12-30T08:37:47.938Z,98749.70
2018-12-30T08:40:19.309Z,98751.14
2018-12-30T08:42:50.965Z,98756.66
2018-12-30T08:45:21.811Z,98765.75
2018-12-30T08:47:53.447Z,98763.63
2018-12-30T08:50:24.808Z,98761.34
2018-12-30T08:52:56.707Z,98760.88
2018-12-30T08:55:28.097Z,98767.66
2018-12-30T08:57:59.743Z,98767.81
2018-12-30T09:00:31.428Z,98771.19
2018-12-30T09:03:02.795Z,98770.69
2018-12-30T09:05:34.218Z,98779.86
2018-12-30T09:08:05.939Z,98783.13
2018-12-30T09:10:37.131Z,98782.97
2018-12-30T09:13:08.548Z,98788.00
2018-12-30T09:15:40.241Z,98786.20
2018-12-30T09:18:11.628Z,98784.26
2018-12-30T09:20:42.743Z,98783.70
2018-12-30T09:23:14.469Z,98779.02
2018-12-30T09:25:46.323Z,98784.69
2018-12-30T09:28:17.735Z,98776.75
2018-12-30T09:30:52.769Z,98782.91
2018-12-30T09:33:24.434Z,98779.65
2018-12-30T09:35:58.083Z,98772.08
2018-12-30T09:38:30.834Z,98779.16
2018-12-30T09:41:03.198Z,98773.03
2018-12-30T09:43:34.867Z,98783.53
2018-12-30T09:46:06.240Z,98781.43
2018-12-30T09:48:37.899Z,98781.38
2018-12-30T09:51:09.299Z,98786.45
2018-12-30T09:53:45.042Z,98790.61
2018-12-30T09:56:14.360Z,98784.81
2018-12-30T09:58:46.016Z,98777.70
2018-12-30T10:01:17.110Z,98774.13
2018-12-30T10:03:48.266Z,98780.42
2018-12-30T10:06:19.660Z,98776.55
2018-12-30T10:08:51.039Z,98775.84
2018-12-30T10:11:22.437Z,98778.47
2018-12-30T10:13:54.748Z,98780.20
2018-12-30T10:16:26.156Z,98778.44
2018-12-30T10:18:57.572Z,98784.22
2018-12-30T10:21:28.959Z,98787.17
2018-12-30T10:24:00.630Z,98788.55
2018-12-30T10:26:32.288Z,98786.14
2018-12-30T10:29:03.952Z,98793.70
2018-12-30T10:31:35.064Z,98789.86
2018-12-30T10:34:06.011Z,98791.20
2018-12-30T10:36:41.191Z,98791.63
2018-12-30T10:39:13.736Z,98790.22
2018-12-30T10:41:45.116Z,98788.69
2018-12-30T10:44:16.270Z,98792.56
2018-12-30T10:46:47.849Z,98786.87
2018-12-30T10:49:19.281Z,98783.13
2018-12-30T10:51:50.405Z,98789.90
2018-12-30T10:54:21.853Z,98795.50
2018-12-30T10:56:57.587Z,98789.22
2018-12-30T10:59:28.991Z,98791.08
2018-12-30T11:02:00.092Z,98792.52
2018-12-30T11:04:31.494Z,98787.33
2018-12-30T11:07:02.897Z,98784.30
2018-12-30T11:09:34.087Z,98775.25
2018-12-30T11:12:11.810Z,98771.31
2018-12-30T11:14:44.316Z,98767.36
2018-12-30T11:17:15.262Z,98768.15
2018-12-30T11:19:48.753Z,98772.10
2018-12-30T11:22:20.276Z,98766.98
2018-12-30T11:24:51.665Z,98770.09
2018-12-30T11:27:23.326Z,98775.72
2018-12-30T11:29:55.099Z,98769.36
2018-12-30T11:32:26.254Z,98768.12
2018-12-30T11:35:01.577Z,98766.82
2018-12-30T11:37:32.994Z,98759.09
2018-12-30T11:40:03.929Z,98746.69
2018-12-30T11:42:35.612Z,98757.13
2018-12-30T11:45:06.584Z,98758.47
2018-12-30T11:47:37.698Z,98754.95
2018-12-30T11:50:09.694Z,98759.27
2018-12-30T11:52:41.330Z,98755.02
2018-12-30T11:55:12.707Z,98754.73
2018-12-30T11:57:44.117Z,98746.80
2018-12-30T12:00:15.615Z,98752.13
2018-12-30T12:02:47.414Z,98755.07
2018-12-30T12:05:18.820Z,98747.52
2018-12-30T12:07:50.547Z,98743.80
2018-12-30T12:10:21.641Z,98736.05
2018-12-30T12:12:53.070Z,98733.26
2018-12-30T12:15:24.709Z,98729.20
2018-12-30T12:17:56.088Z,98730.86
2018-12-30T12:20:27.539Z,98727.30
2018-12-30T12:22:59.188Z,98722.62
2018-12-30T12:25:30.542Z,98730.56
2018-12-30T12:28:01.920Z,98739.48
2018-12-30T12:30:33.561Z,98727.02
2018-12-30T12:33:09.250Z,98728.19
2018-12-30T12:35:40.718Z,98734.59
2018-12-30T12:38:13.634Z,98731.09
2018-12-30T12:40:45.908Z,98726.15
2018-12-30T12:43:22.623Z,98731.19
2018-12-30T12:45:57.925Z,98737.43
2018-12-30T12:48:37.091Z,98734.83
2018-12-30T12:51:16.901Z,98729.92
2018-12-30T12:53:51.326Z,98736.89
2018-12-30T12:56:22.693Z,98740.90
2018-12-30T12:58:54.365Z,98740.73
2018-12-30T13:01:26.018Z,98752.89
2018-12-30T13:03:57.379Z,98755.56
2018-12-30T13:06:28.465Z,98758.44
2018-12-30T13:09:00.331Z,98761.98
2018-12-30T13:11:31.449Z,98764.20
2018-12-30T13:14:02.891Z,98760.19
2018-12-30T13:16:34.618Z,98764.67
2018-12-30T13:19:06.320Z,98754.22
2018-12-30T13:21:37.732Z,98755.50
2018-12-30T13:24:09.379Z,98746.03
2018-12-30T13:26:40.206Z,98741.33
2018-12-30T13:29:11.623Z,98751.33
2018-12-30T13:31:42.730Z,98742.75
2018-12-30T13:34:13.834Z,98733.64
2018-12-30T13:36:45.526Z,98736.47
2018-12-30T13:39:17.192Z,98731.34
2018-12-30T13:41:48.567Z,98740.89
2018-12-30T13:44:20.047Z,98743.36
2018-12-30T13:47:01.978Z,98750.43
2018-12-30T13:49:33.520Z,98755.22
2018-12-30T13:52:10.745Z,98738.64
2018-12-30T13:54:47.652Z,98733.41
2018-12-30T13:57:15.244Z,98744.23
2018-12-30T13:59:46.398Z,98746.73
2018-12-30T14:02:17.787Z,98741.63
2018-12-30T14:04:49.416Z,98735.76
2018-12-30T14:07:20.905Z,98730.72
2018-12-30T14:09:52.287Z,98732.28
2018-12-30T14:12:23.641Z,98741.15
2018-12-30T14:14:55.369Z,98734.90
2018-12-30T14:17:40.137Z,98734.00
2018-12-30T14:20:11.194Z,98724.17
2018-12-30T14:22:42.615Z,98725.00
2018-12-30T14:25:14.221Z,98714.34
2018-12-30T14:27:45.661Z,98718.70
2018-12-30T14:30:17.303Z,98723.83
2018-12-30T14:32:49.069Z,98726.67
2018-12-30T14:35:20.494Z,98719.59
2018-12-30T14:37:51.881Z,98730.81
2018-12-30T14:40:23.677Z,98748.51
2018-12-30T14:42:55.323Z,98761.00
2018-12-30T14:45:26.979Z,98766.97
2018-12-30T14:47:58.646Z,98756.41
2018-12-30T14:50:29.768Z,98748.38
2018-12-30T14:53:00.885Z,98754.85
2018-12-30T14:55:32.615Z,98749.19
2018-12-30T14:58:04.024Z,98753.93
2018-12-30T15:00:35.419Z,98748.58
2018-12-30T15:03:07.331Z,98761.19
2018-12-30T15:05:39.018Z,98763.86
2018-12-30T15:08:10.900Z,98751.53
2018-12-30T15:10:42.700Z,98755.08
2018-12-30T15:13:14.105Z,98756.05
2018-12-30T15:15:45.462Z,98765.31
2018-12-30T15:18:17.131Z,98770.69
2018-12-30T15:20:48.556Z,98762.60
2018-12-30T15:23:19.938Z,98762.62
2018-12-30T15:25:51.041Z,98765.53
2018-12-30T15:28:22.461Z,98773.02
2018-12-30T15:30:53.829Z,98771.88
2018-12-30T15:33:25.251Z,98774.34
2018-12-30T15:35:56.900Z,98781.50
2018-12-30T15:38:28.559Z,98776.67
2018-12-30T15:40:59.735Z,98777.30
2018-12-30T15:43:31.150Z,98784.47
2018-12-30T15:46:02.254Z,98778.95
2018-12-30T15:48:33.340Z,98776.20
2018-12-30T15:51:04.792Z,98777.33
2018-12-30T15:53:36.484Z,98770.23
2018-12-30T15:56:07.381Z,98769.74
2018-12-30T15:58:39.027Z,98770.05
2018-12-30T16:01:10.400Z,98773.46
2018-12-30T16:03:42.029Z,98767.38
2018-12-30T16:06:13.720Z,98769.00
2018-12-30T16:08:45.113Z,98766.11
2018-12-30T16:11:16.514Z,98766.14
2018-12-30T16:13:47.375Z,98769.69
2018-12-30T16:16:18.743Z,98766.48
2018-12-30T16:18:50.181Z,98768.12
2018-12-30T16:21:21.578Z,98770.88
2018-12-30T16:23:53.277Z,98770.06
2018-12-30T16:26:24.990Z,98768.14
2018-12-30T16:28:56.402Z,98766.83
2018-12-30T16:31:28.320Z,98762.46
2018-12-30T16:33:59.693Z,98759.92
2018-12-30T16:36:30.822Z,98759.58
2018-12-30T16:39:02.453Z,98740.53
2018-12-30T16:41:33.839Z,98739.09
2018-12-30T16:44:04.967Z,98743.61
2018-12-30T16:46:36.609Z,98734.23
2018-12-30T16:49:07.154Z,98745.26
2018-12-30T16:51:38.541Z,98751.37
2018-12-30T16:54:09.905Z,98753.63
2018-12-30T16:56:41.356Z,98756.56
2018-12-30T16:59:12.749Z,98747.18
2018-12-30T17:01:43.573Z,98747.64
2018-12-30T17:04:15.276Z,98745.88
2018-12-30T17:06:47.065Z,98744.44
2018-12-30T17:09:18.434Z,98734.89
2018-12-30T17:11:49.559Z,98720.69
2018-12-30T17:14:21.333Z,98721.95
2018-12-30T17:16:52.753Z,98722.43
2018-12-30T17:19:24.150Z,98726.65
2018-12-30T17:21:55.588Z,98731.19
2018-12-30T17:24:26.966Z,98729.23
2018-12-30T17:26:58.507Z,98724.38
2018-12-30T17:29:30.197Z,98713.22
2018-12-30T17:32:02.174Z,98702.26
2018-12-30T17:34:33.969Z,98703.20
2018-12-30T17:37:05.048Z,98709.49
2018-12-30T17:39:36.175Z,98692.23
2018-12-30T17:42:07.029Z,98689.78
2018-12-30T17:44:38.785Z,98681.87
2018-12-30T17:47:10.468Z,98679.13
2018-12-30T17:49:41.848Z,98695.94
2018-12-30T17:52:13.527Z,98706.77
2018-12-30T17:54:44.925Z,98713.05
2018-12-30T17:57:16.093Z,98720.98
2018-12-30T17:59:47.775Z,98733.44
2018-12-30T18:02:19.170Z,98724.73
2018-12-30T18:04:50.315Z,98733.28
2018-12-30T18:07:21.724Z,98722.77
2018-12-30T18:09:53.194Z,98727.11
2018-12-30T18:12:24.288Z,98727.77
2018-12-30T18:14:55.411Z,98724.20
2018-12-30T18:17:26.627Z,98714.67
2018-12-30T18:19:58.300Z,98712.41
2018-12-30T18:22:29.971Z,98712.56
2018-12-30T18:25:01.653Z,98700.79
2018-12-30T18:27:33.032Z,98709.52
2018-12-30T18:30:03.894Z,98689.92
2018-12-30T18:32:35.332Z,98678.94
2018-12-30T18:35:06.963Z,98653.09
2018-12-30T18:37:38.121Z,98695.91
2018-12-30T18:40:09.480Z,98729.48
2018-12-30T18:42:40.872Z,98701.34
2018-12-30T18:45:11.990Z,98696.52
2018-12-30T18:47:43.160Z,98730.30
2018-12-30T18:50:13.974Z,98720.95
2018-12-30T18:52:45.619Z,98728.55
2018-12-30T18:55:17.781Z,98717.56
2018-12-30T18:57:49.189Z,98718.70
2018-12-30T19:00:20.028Z,98719.00
2018-12-30T19:02:51.146Z,98729.84
2018-12-30T19:05:22.539Z,98750.04
2018-12-30T19:07:54.168Z,98748.56
2018-12-30T19:10:25.034Z,98760.48
2018-12-30T19:12:56.685Z,98757.55
2018-12-30T19:15:28.105Z,98754.54
2018-12-30T19:17:59.527Z,98751.92
2018-12-30T19:20:31.225Z,98761.47
2018-12-30T19:23:02.963Z,98756.83
2018-12-30T19:25:34.361Z,98749.39
2018-12-30T19:28:05.720Z,98743.08
2018-12-30T19:30:37.388Z,98741.66
2018-12-30T19:33:08.763Z,98743.59
2018-12-30T19:35:40.485Z,98736.14
2018-12-30T19:38:12.162Z,98741.48
2018-12-30T19:40:43.528Z,98746.49
2018-12-30T19:43:15.213Z,98740.99
2018-12-30T19:45:46.375Z,98740.05
2018-12-30T19:48:18.076Z,98723.55
2018-12-30T19:50:49.166Z,98716.95
2018-12-30T19:53:20.825Z,98711.45
2018-12-30T19:55:51.931Z,98710.95
2018-12-30T19:58:23.578Z,98722.23
2018-12-30T20:00:54.487Z,98714.16
2018-12-30T20:03:25.948Z,98712.08
2018-12-30T20:05:57.306Z,98707.86
2018-12-30T20:08:28.710Z,98702.69
2018-12-30T20:10:59.603Z,98703.03
2018-12-30T20:13:31.232Z,98702.67
2018-12-30T20:16:02.925Z,98692.80
2018-12-30T20:18:34.562Z,98682.47
2018-12-30T20:21:05.967Z,98683.96
2018-12-30T20:23:37.650Z,98675.24
2018-12-30T20:26:09.056Z,98674.78
2018-12-30T20:28:40.431Z,98679.66
2018-12-30T20:31:12.097Z,98681.59
2018-12-30T20:33:43.301Z,98678.19
2018-12-30T20:36:14.981Z,98671.09
2018-12-30T20:38:46.155Z,98677.06
2018-12-30T20:41:17.531Z,98669.79
2018-12-30T20:43:49.219Z,98667.66
2018-12-30T20:46:20.864Z,98674.29
2018-12-30T20:48:52.492Z,98675.54
2018-12-30T20:51:24.154Z,98677.15
2018-12-30T20:53:55.820Z,98683.27
2018-12-30T20:56:27.467Z,98688.30
2018-12-30T20:58:58.847Z,98692.17
2018-12-30T21:01:30.257Z,98689.44
2018-12-30T21:04:01.360Z,98695.08
2018-12-30T21:06:33.016Z,98695.42
2018-12-30T21:09:05.158Z,98686.34
2018-12-30T21:11:36.818Z,98697.02
2018-12-30T21:14:08.548Z,98691.02
2018-12-30T21:16:39.944Z,98677.92
2018-12-30T21:19:11.284Z,98680.83
2018-12-30T21:21:42.372Z,98686.66
2018-12-30T21:24:14.036Z,98688.13
2018-12-30T21:26:45.543Z,98699.94
2018-12-30T21:29:17.072Z,98699.93
2018-12-30T21:31:48.507Z,98695.59
2018-12-30T21:34:20.168Z,98696.88
2018-12-30T21:36:51.285Z,98695.74
2018-12-30T21:39:22.679Z,98693.48
2018-12-30T21:41:54.057Z,98707.55
2018-12-30T21:44:25.427Z,98708.20
2018-12-30T21:46:56.836Z,98702.58
2018-12-30T21:49:28.581Z,98708.22
2018-12-30T21:51:59.961Z,98703.70
2018-12-30T21:54:31.358Z,98705.17
2018-12-30T21:57:02.756Z,98699.34
2018-12-30T21:59:33.975Z,98699.36
2018-12-30T22:02:05.641Z,98707.27
2018-12-30T22:04:37.016Z,98701.93
2018-12-30T22:07:08.675Z,98704.98
2018-12-30T22:09:40.399Z,98707.25
2018-12-30T22:12:11.489Z,98700.95
2018-12-30T22:14:42.851Z,98702.41
2018-12-30T22:17:14.002Z,98707.09
2018-12-30T22:19:45.358Z,98712.91
2018-12-30T22:22:17.069Z,98700.15
2018-12-30T22:24:48.533Z,98699.02
2018-12-30T22:27:20.428Z,98698.20
2018-12-30T22:29:52.092Z,98695.94
2018-12-30T22:32:23.493Z,98704.16
2018-12-30T22:34:54.940Z,98704.80
2018-12-30T22:37:26.367Z,98700.92
2018-12-30T22:39:57.752Z,98706.90
2018-12-30T22:42:32.883Z,98703.83
2018-12-30T22:45:02.232Z,98715.31
2018-12-30T22:47:33.606Z,98711.45
2018-12-30T22:50:04.860Z,98715.48
2018-12-30T22:52:36.525Z,98721.30
2018-12-30T22:55:07.832Z,98721.81
2018-12-30T22:57:39.453Z,98728.75
2018-12-30T23:00:22.334Z,98728.26
2018-12-30T23:02:53.812Z,98730.36
2018-12-30T23:05:24.680Z,98730.03
2018-12-30T23:07:55.861Z,98725.84
2018-12-30T23:10:26.960Z,98727.47
2018-12-30T23:12:58.423Z,98729.22
2018-12-30T23:15:30.073Z,98722.75
2018-12-30T23:18:00.901Z,98728.42
2018-12-30T23:20:32.286Z,98717.09
2018-12-30T23:23:03.413Z,98709.48
2018-12-30T23:25:35.014Z,98708.05
2018-12-30T23:28:06.420Z,98704.53
2018-12-30T23:30:38.094Z,98709.84
2018-12-30T23:33:09.218Z,98710.20
2018-12-30T23:35:40.559Z,98711.81
2018-12-30T23:38:12.473Z,98708.75
2018-12-30T23:40:43.875Z,98708.27
2018-12-30T23:43:15.223Z,98710.36
2018-12-30T23:45:46.621Z,98707.91
2018-12-30T23:48:17.999Z,98706.95
2018-12-30T23:50:49.140Z,98707.59
2018-12-30T23:53:21.075Z,98705.98
2018-12-30T23:55:52.225Z,98702.27
2018-12-30T23:58:24.001Z,98705.02
